createdAt,value
2022-12-18T00:01:41.171Z,1.40
2022-12-18T00:06:42.680Z,1.40
2022-12-18T00:11:45.955Z,1.42
2022-12-18T00:16:47.327Z,1.60
2022-12-18T00:21:48.708Z,1.50
2022-12-18T00:26:50.071Z,1.20
2022-12-18T00:31:51.500Z,1.40
2022-12-18T00:36:52.903Z,1.40
2022-12-18T00:42:12.858Z,1.40
2022-12-18T00:47:14.625Z,1.25
2022-12-18T00:52:16.026Z,1.38
2022-12-18T00:57:17.456Z,1.30
2022-12-18T01:02:18.967Z,1.27
2022-12-18T01:07:20.440Z,1.58
2022-12-18T01:12:21.808Z,1.40
2022-12-18T01:17:23.240Z,1.50
2022-12-18T01:22:24.629Z,1.20
2022-12-18T01:27:25.996Z,1.20
2022-12-18T01:32:27.455Z,1.40
2022-12-18T01:37:28.847Z,1.40
2022-12-18T01:42:30.239Z,1.20
2022-12-18T01:47:40.177Z,1.30
2022-12-18T01:52:43.195Z,1.20
2022-12-18T01:57:44.552Z,1.50
2022-12-18T02:02:46.356Z,1.30
2022-12-18T02:08:07.556Z,1.23
2022-12-18T02:13:14.466Z,1.30
2022-12-18T02:18:20.162Z,1.20
2022-12-18T02:23:49.446Z,1.20
2022-12-18T02:28:54.806Z,1.10
2022-12-18T02:33:59.441Z,1.43
2022-12-18T02:39:01.104Z,1.10
2022-12-18T02:44:03.187Z,1.30
2022-12-18T02:49:13.146Z,1.20
2022-12-18T02:54:39.352Z,1.45
2022-12-18T02:59:44.504Z,1.40
2022-12-18T03:04:54.230Z,1.20
2022-12-18T03:09:55.656Z,1.20
2022-12-18T03:15:04.252Z,1.13
2022-12-18T03:20:11.602Z,1.30
2022-12-18T03:25:14.374Z,1.33
2022-12-18T03:30:16.026Z,1.30
2022-12-18T03:35:19.460Z,1.15
2022-12-18T03:40:22.463Z,1.40
2022-12-18T03:45:26.818Z,1.35
2022-12-18T03:50:49.597Z,1.23
2022-12-18T03:55:51.053Z,1.20
2022-12-18T04:00:53.107Z,1.10
2022-12-18T04:05:55.225Z,1.23
2022-12-18T04:10:56.622Z,1.30
2022-12-18T04:15:58.052Z,1.20
2022-12-18T04:20:59.489Z,1.17
2022-12-18T04:26:00.880Z,1.25
2022-12-18T04:31:02.354Z,1.10
2022-12-18T04:36:03.809Z,1.00
2022-12-18T04:41:05.223Z,1.20
2022-12-18T04:46:07.390Z,1.20
2022-12-18T04:51:08.820Z,1.10
2022-12-18T04:56:14.744Z,0.98
2022-12-18T05:01:17.296Z,1.05
2022-12-18T05:06:18.871Z,0.95
2022-12-18T05:11:21.323Z,1.02
2022-12-18T05:16:22.780Z,1.10
2022-12-18T05:21:24.184Z,0.98
2022-12-18T05:26:25.583Z,0.90
2022-12-18T05:31:27.015Z,0.90
2022-12-18T05:36:28.422Z,1.05
2022-12-18T05:41:29.798Z,0.70
2022-12-18T05:46:31.227Z,0.90
2022-12-18T05:51:32.600Z,0.75
2022-12-18T05:56:33.990Z,0.90
2022-12-18T06:01:35.626Z,0.80
2022-12-18T06:06:37.603Z,1.00
2022-12-18T06:11:39.141Z,1.00
2022-12-18T06:16:40.544Z,0.90
2022-12-18T06:21:42.004Z,1.00
2022-12-18T06:26:43.459Z,0.85
2022-12-18T06:31:44.889Z,0.90
2022-12-18T06:36:46.367Z,0.98
2022-12-18T06:41:47.891Z,0.90
2022-12-18T06:46:49.333Z,0.80
2022-12-18T06:51:50.708Z,0.70
2022-12-18T06:56:52.105Z,0.88
2022-12-18T07:01:53.581Z,0.80
2022-12-18T07:06:55.095Z,0.95
2022-12-18T07:11:56.836Z,0.70
2022-12-18T07:16:59.277Z,0.80
2022-12-18T07:22:01.561Z,0.63
2022-12-18T07:27:03.553Z,0.75
2022-12-18T07:32:05.596Z,0.90
2022-12-18T07:37:07.003Z,0.80
2022-12-18T07:42:26.740Z,0.93
2022-12-18T07:47:32.177Z,0.85
2022-12-18T07:52:33.580Z,0.73
2022-12-18T07:57:50.543Z,0.82
2022-12-18T08:02:53.449Z,0.82
2022-12-18T08:07:55.079Z,1.00
2022-12-18T08:13:01.414Z,0.70
2022-12-18T08:18:08.113Z,0.80
2022-12-18T08:23:12.774Z,0.80
2022-12-18T08:28:17.490Z,0.85
2022-12-18T08:33:18.864Z,0.85
2022-12-18T08:38:20.239Z,0.70
2022-12-18T08:43:40.298Z,1.00
2022-12-18T08:48:41.995Z,1.10
2022-12-18T08:53:43.557Z,1.10
2022-12-18T08:58:45.245Z,0.82
2022-12-18T09:03:46.604Z,0.70
2022-12-18T09:08:48.139Z,1.20
2022-12-18T09:13:49.766Z,1.20
2022-12-18T09:18:51.145Z,1.00
2022-12-18T09:23:52.839Z,1.10
2022-12-18T09:28:54.364Z,0.90
2022-12-18T09:33:57.188Z,1.20
2022-12-18T09:38:59.640Z,1.25
2022-12-18T09:44:06.464Z,1.10
2022-12-18T09:49:11.423Z,1.15
2022-12-18T09:54:15.323Z,1.00
2022-12-18T09:59:33.388Z,1.10
2022-12-18T10:04:34.836Z,1.10
2022-12-18T10:09:58.478Z,1.10
2022-12-18T10:15:11.653Z,1.20
2022-12-18T10:20:26.382Z,1.40
2022-12-18T10:25:49.297Z,1.20
2022-12-18T10:30:50.734Z,1.30
2022-12-18T10:35:52.204Z,1.30
2022-12-18T10:41:03.460Z,1.30
2022-12-18T10:46:10.387Z,1.50
2022-12-18T10:51:12.436Z,1.40
2022-12-18T10:56:14.796Z,1.20
2022-12-18T11:01:17.713Z,1.38
2022-12-18T11:06:22.519Z,1.23
2022-12-18T11:11:24.390Z,1.30
2022-12-18T11:16:25.958Z,1.52
2022-12-18T11:21:27.355Z,1.60
2022-12-18T11:26:35.247Z,1.27
2022-12-18T11:31:36.642Z,1.50
2022-12-18T11:36:40.565Z,1.23
2022-12-18T11:42:09.060Z,1.45
2022-12-18T11:47:38.013Z,1.25
2022-12-18T11:52:40.374Z,1.40
2022-12-18T11:58:19.954Z,1.30
2022-12-18T12:03:52.156Z,1.48
2022-12-18T12:09:10.384Z,1.23
2022-12-18T12:14:38.012Z,1.40
2022-12-18T12:19:53.949Z,1.15
2022-12-18T12:30:10.337Z,1.45
2022-12-18T12:35:22.819Z,1.30
2022-12-18T12:46:07.507Z,1.52
2022-12-18T12:51:17.644Z,1.45
2022-12-18T12:56:20.247Z,1.30
2022-12-18T13:01:42.401Z,1.40
2022-12-18T13:06:55.428Z,1.40
2022-12-18T13:12:15.300Z,1.50
2022-12-18T13:17:20.699Z,1.55
2022-12-18T13:22:29.044Z,1.40
2022-12-18T13:27:46.068Z,1.33
2022-12-18T13:32:48.520Z,1.50
2022-12-18T13:37:53.694Z,1.50
2022-12-18T13:43:13.483Z,1.20
2022-12-18T13:48:22.624Z,1.20
2022-12-18T13:53:52.177Z,1.40
2022-12-18T13:59:24.618Z,1.40
2022-12-18T14:04:30.907Z,1.40
2022-12-18T14:14:38.180Z,1.30
2022-12-18T14:19:42.912Z,1.30
2022-12-18T14:24:44.371Z,1.50
2022-12-18T14:29:45.735Z,1.30
2022-12-18T14:34:54.860Z,1.17
2022-12-18T14:40:03.206Z,1.48
2022-12-18T14:45:41.083Z,1.40
2022-12-18T14:50:43.887Z,1.37
2022-12-18T14:55:48.511Z,1.48
2022-12-18T15:00:49.884Z,1.30
2022-12-18T15:05:51.260Z,1.40
2022-12-18T15:10:52.715Z,1.13
2022-12-18T15:15:55.338Z,1.10
2022-12-18T15:21:00.905Z,1.23
2022-12-18T15:26:04.439Z,1.15
2022-12-18T15:31:13.015Z,1.50
2022-12-18T15:36:15.962Z,1.50
2022-12-18T15:41:24.491Z,1.15
2022-12-18T15:46:27.456Z,1.20
2022-12-18T15:51:36.023Z,1.27
2022-12-18T15:56:56.011Z,1.30
2022-12-18T16:01:58.369Z,1.20
2022-12-18T16:07:19.631Z,1.10
2022-12-18T16:12:22.556Z,1.52
2022-12-18T16:17:23.927Z,1.40
2022-12-18T16:22:28.728Z,1.55
2022-12-18T16:27:30.132Z,1.20
2022-12-18T16:32:31.501Z,1.30
2022-12-18T16:37:32.867Z,1.40
2022-12-18T16:42:34.231Z,1.13
2022-12-18T16:47:35.684Z,1.38
2022-12-18T16:52:37.140Z,1.20
2022-12-18T16:57:38.560Z,1.40
2022-12-18T17:02:40.046Z,1.42
2022-12-18T17:07:41.540Z,1.38
2022-12-18T17:12:43.223Z,1.33
2022-12-18T17:17:45.120Z,1.20
2022-12-18T17:22:46.505Z,1.10
2022-12-18T17:27:47.949Z,1.20
2022-12-18T17:32:49.318Z,1.58
2022-12-18T17:37:50.675Z,1.40
2022-12-18T17:42:52.933Z,1.20
2022-12-18T17:47:59.625Z,1.45
2022-12-18T17:53:01.405Z,1.15
2022-12-18T17:58:02.816Z,1.30
2022-12-18T18:03:04.422Z,1.08
2022-12-18T18:08:06.096Z,1.38
2022-12-18T18:13:37.843Z,1.30
2022-12-18T18:18:41.152Z,1.40
2022-12-18T18:23:42.722Z,1.20
2022-12-18T18:28:46.105Z,1.40
2022-12-18T18:33:47.473Z,1.27
2022-12-18T18:38:49.759Z,1.30
2022-12-18T18:43:55.631Z,1.23
2022-12-18T18:48:57.005Z,1.08
2022-12-18T18:53:58.416Z,0.90
2022-12-18T18:59:01.549Z,0.82
2022-12-18T19:04:02.954Z,1.30
2022-12-18T19:09:04.831Z,1.10
2022-12-18T19:14:07.096Z,1.40
2022-12-18T19:19:08.482Z,1.10
2022-12-18T19:24:09.847Z,1.15
2022-12-18T19:29:11.826Z,1.50
2022-12-18T19:34:13.327Z,1.30
2022-12-18T19:39:15.940Z,1.30
2022-12-18T19:44:17.552Z,1.00
2022-12-18T19:49:21.738Z,1.02
2022-12-18T19:54:23.163Z,1.27
2022-12-18T19:59:27.066Z,1.23
2022-12-18T20:04:28.515Z,1.10
2022-12-18T20:09:29.932Z,1.50
2022-12-18T20:14:31.308Z,1.25
2022-12-18T20:19:32.668Z,1.30
2022-12-18T20:24:36.192Z,1.50
2022-12-18T20:29:37.642Z,1.00
2022-12-18T20:34:39.084Z,1.20
2022-12-18T20:39:41.027Z,1.15
2022-12-18T20:44:43.152Z,1.20
2022-12-18T20:49:45.577Z,1.10
2022-12-18T20:54:47.207Z,1.38
2022-12-18T20:59:48.638Z,1.48
2022-12-18T21:04:50.055Z,1.65
2022-12-18T21:09:51.433Z,1.40
2022-12-18T21:14:52.831Z,1.40
2022-12-18T21:19:54.231Z,1.15
2022-12-18T21:24:57.163Z,1.08
2022-12-18T21:29:58.607Z,1.25
2022-12-18T21:35:00.263Z,1.30
2022-12-18T21:40:01.670Z,1.20
2022-12-18T21:45:03.167Z,1.20
2022-12-18T21:50:04.765Z,1.08
2022-12-18T21:55:09.916Z,1.67
2022-12-18T22:00:19.161Z,1.17
2022-12-18T22:05:21.089Z,1.42
2022-12-18T22:10:22.452Z,1.10
2022-12-18T22:15:23.836Z,1.30
2022-12-18T22:20:25.236Z,1.60
2022-12-18T22:25:28.292Z,1.40
2022-12-18T22:30:29.691Z,1.33
2022-12-18T22:35:31.541Z,1.60
2022-12-18T22:40:32.909Z,1.30
2022-12-18T22:45:36.294Z,1.23
2022-12-18T22:50:40.183Z,1.40
2022-12-18T22:55:41.576Z,1.35
2022-12-18T23:00:42.952Z,1.40
2022-12-18T23:05:44.851Z,1.70
2022-12-18T23:10:46.248Z,1.38
2022-12-18T23:15:47.633Z,1.52
2022-12-18T23:20:49.039Z,1.58
2022-12-18T23:25:51.481Z,1.40
2022-12-18T23:30:52.967Z,1.50
2022-12-18T23:35:58.656Z,1.33
2022-12-18T23:41:00.019Z,1.20
2022-12-18T23:46:02.163Z,1.52
2022-12-18T23:51:07.865Z,1.48
2022-12-18T23:56:09.479Z,1.60
